Time;durP1;ratioP1;P1;durP2;ratioP2;P2;SDS_P1;SDS_P2;PMS_P1;PMS_P2;Temp;Humidity;BMP_temperature;BMP_pressure;BME280_temperature;BME280_humidity;BME280_pressure;Samples;Min_cycle;Max_cycle;Signal;HPM_P1;HPM_P2
2024/02/15 05:01:25;;;;;;;4.40;1.93;;;9.80;97.30;;;;;;5692134;22;20490;-92
2024/02/15 05:03:55;;;;;;;1.40;1.30;;;9.80;97.30;;;;;;5038967;28;20438;-90
2024/02/15 05:06:21;;;;;;;1.00;1.00;;;9.80;97.30;;;;;;5049243;28;20215;-91
2024/02/15 05:08:49;;;;;;;1.33;1.23;;;9.80;97.30;;;;;;5041213;28;20462;-91
2024/02/15 05:11:19;;;;;;;1.10;1.00;;;9.80;97.30;;;;;;5040608;28;20438;-91
2024/02/15 05:14:28;;;;;;;1.00;0.90;;;9.80;97.30;;;;;;5031749;28;20427;-88
2024/02/15 05:17:36;;;;;;;1.10;1.00;;;9.80;97.30;;;;;;4998173;28;20414;-91
2024/02/15 05:21:28;;;;;;;1.17;1.07;;;9.80;97.30;;;;;;5029747;28;20426;-91
2024/02/15 05:23:57;;;;;;;1.47;1.17;;;9.80;97.30;;;;;;5046870;28;20429;-92
2024/02/15 05:29:39;;;;;;;1.43;1.33;;;9.90;97.30;;;;;;5043146;28;20979;-91
2024/02/15 05:32:28;;;;;;;0.80;0.70;;;9.90;97.30;;;;;;5033139;28;20458;-92
2024/02/15 05:35:17;;;;;;;0.93;0.83;;;9.90;97.30;;;;;;5036934;28;20605;-92
2024/02/15 05:38:38;;;;;;;;;;;;;;;;;;;;;
2024/02/15 05:41:07;;;;;;;1.17;1.00;;;9.90;97.30;;;;;;5060623;28;20497;-92
2024/02/15 05:44:06;;;;;;;2.50;1.17;;;9.90;97.30;;;;;;5032341;28;20433;-91
2024/02/15 05:47:08;;;;;;;0.60;0.60;;;9.90;97.30;;;;;;5020590;28;20462;-92
2024/02/15 05:49:47;;;;;;;1.10;1.00;;;9.90;97.30;;;;;;5023457;28;20426;-91
2024/02/15 05:52:18;;;;;;;5.17;1.77;;;9.90;97.30;;;;;;5018007;28;20443;-91
2024/02/15 05:54:48;;;;;;;0.80;0.70;;;9.90;97.30;;;;;;5024492;28;20430;-91
2024/02/15 05:57:46;;;;;;;0.90;0.80;;;9.90;97.30;;;;;;5018599;28;20431;-92
2024/02/15 06:00:18;;;;;;;1.00;0.90;;;9.90;97.30;;;;;;5012959;28;20502;-94
2024/02/15 06:03:09;;;;;;;1.13;1.03;;;9.90;97.30;;;;;;5018279;28;20844;-91
2024/02/15 06:06:06;;;;;;;0.87;0.83;;;9.90;97.30;;;;;;5035479;28;20441;-91
2024/02/15 06:08:37;;;;;;;1.37;1.27;;;9.80;97.30;;;;;;4932404;29;20478;-91
2024/02/15 06:17:54;;;;;;;0.80;0.70;;;9.70;97.30;;;;;;5039848;28;20415;-91
2024/02/15 06:44:07;;;;;;;1.00;0.90;;;9.30;97.30;;;;;;4972377;28;20484;-93
2024/02/15 06:47:10;;;;;;;1.00;1.00;;;9.30;97.30;;;;;;5031555;28;20479;-93
2024/02/15 06:53:27;;;;;;;6.90;1.20;;;9.40;97.30;;;;;;5007427;28;21004;-91
2024/02/15 06:56:06;;;;;;;1.00;0.90;;;9.40;97.30;;;;;;4936829;29;20423;-91
2024/02/15 06:58:48;;;;;;;1.47;1.37;;;9.40;97.30;;;;;;4954817;28;20419;-91
2024/02/15 07:01:26;;;;;;;1.53;1.43;;;9.40;97.30;;;;;;5041639;28;20476;-91
2024/02/15 07:03:58;;;;;;;0.90;0.80;;;9.40;97.30;;;;;;5033315;28;20422;-91
2024/02/15 07:07:07;;;;;;;0.93;0.83;;;9.50;97.30;;;;;;5032894;28;20414;-92
2024/02/15 07:11:08;;;;;;;1.47;1.00;;;9.60;97.30;;;;;;5002667;28;20499;-92
2024/02/15 07:13:18;;;;;;;1.10;1.00;;;9.70;97.30;;;;;;5030167;28;20423;-91
2024/02/15 07:16:07;;;;;;;1.50;1.40;;;9.80;97.30;;;;;;5037051;28;20793;-91
2024/02/15 07:18:45;;;;;;;1.20;1.10;;;9.80;97.30;;;;;;5024656;28;20415;-92
2024/02/15 07:21:38;;;;;;;8.00;2.30;;;9.90;97.30;;;;;;5031429;28;20445;-92
2024/02/15 07:24:27;;;;;;;1.57;1.47;;;9.90;97.30;;;;;;5031298;28;20929;-92
2024/02/15 07:27:18;;;;;;;1.33;1.30;;;10.00;97.30;;;;;;5016289;28;20419;-90
2024/02/15 07:29:47;;;;;;;0.90;0.80;;;10.10;97.30;;;;;;5031812;28;20419;-91
2024/02/15 07:35:56;;;;;;;0.73;0.67;;;10.20;97.30;;;;;;4989202;28;20421;-91
2024/02/15 07:39:18;;;;;;;;;;;;;;;;;;;;;
2024/02/15 07:41:56;;;;;;;;;;;;;;;;;;;;;
2024/02/15 07:44:48;;;;;;;1.00;0.90;;;10.40;97.30;;;;;;4996611;28;20512;-91
2024/02/15 07:47:57;;;;;;;1.30;1.20;;;10.50;97.30;;;;;;4971189;28;20470;-91
2024/02/15 07:50:46;;;;;;;2.40;1.83;;;10.50;97.30;;;;;;4971982;28;20420;-92
2024/02/15 07:53:37;;;;;;;1.17;1.07;;;10.60;97.30;;;;;;4970411;28;20426;-90
2024/02/15 07:59:08;;;;;;;0.70;0.70;;;10.70;97.30;;;;;;5001979;28;20430;-90
2024/02/15 08:02:23;;;;;;;;;;;;;;;;;;;;;
2024/02/15 08:05:18;;;;;;;1.10;1.00;;;10.80;97.30;;;;;;4977326;28;20517;-91
2024/02/15 08:07:59;;;;;;;;;;;;;;;;;;;;;
2024/02/15 08:19:18;;;;;;;0.80;0.70;;;11.00;97.30;;;;;;4935112;28;20988;-93
2024/02/15 08:22:15;;;;;;;1.23;1.20;;;11.00;97.30;;;;;;4954505;28;20466;-92
2024/02/15 08:25:28;;;;;;;0.90;0.80;;;11.00;97.30;;;;;;4970843;28;20414;-92
2024/02/15 08:28:47;;;;;;;1.00;0.90;;;11.00;97.30;;;;;;4921230;28;20474;-92
2024/02/15 08:31:08;;;;;;;1.00;0.90;;;11.00;97.30;;;;;;4938294;28;20506;-94
2024/02/15 08:34:06;;;;;;;3.80;2.13;;;11.10;97.30;;;;;;4935719;28;20486;-92
2024/02/15 08:37:37;;;;;;;1.30;1.20;;;11.10;97.30;;;;;;4927159;28;20426;-91
2024/02/15 08:40:27;;;;;;;1.23;1.13;;;11.10;97.30;;;;;;4901121;29;20431;-91
2024/02/15 08:43:06;;;;;;;1.43;1.33;;;11.20;97.30;;;;;;4915110;29;20432;-91
2024/02/15 08:45:50;;;;;;;1.23;1.13;;;11.30;97.30;;;;;;4973044;28;20423;-91
2024/02/15 08:48:47;;;;;;;1.00;0.90;;;11.30;97.30;;;;;;5029504;28;20458;-90
2024/02/15 08:51:27;;;;;;;1.10;1.00;;;11.30;97.30;;;;;;5036803;28;20529;-91
2024/02/15 08:54:08;;;;;;;1.60;1.50;;;11.30;97.30;;;;;;5040791;28;20426;-92
2024/02/15 08:57:07;;;;;;;;;;;;;;;;;;;;;
2024/02/15 08:59:46;;;;;;;2.00;1.63;;;11.40;97.30;;;;;;5042106;28;20506;-93
2024/02/15 09:02:11;;;;;;;1.20;1.10;;;11.40;97.30;;;;;;5049025;23;20488;-70
2024/02/15 09:04:37;;;;;;;1.63;1.30;;;11.50;97.30;;;;;;5060972;28;20496;-70
2024/02/15 09:07:04;;;;;;;1.27;1.17;;;11.50;97.30;;;;;;5054783;28;20186;-70
2024/02/15 09:09:31;;;;;;;5.60;1.00;;;11.50;97.30;;;;;;5040791;28;20201;-70
2024/02/15 09:11:56;;;;;;;3.50;1.47;;;11.50;97.30;;;;;;5055311;28;20549;-70
2024/02/15 09:14:22;;;;;;;1.00;0.90;;;11.50;97.30;;;;;;5064957;28;20521;-70
2024/02/15 09:16:47;;;;;;;1.53;1.43;;;11.60;97.30;;;;;;5052405;28;20187;-70
2024/02/15 09:19:14;;;;;;;1.83;1.73;;;11.60;97.30;;;;;;5061839;28;20569;-70
2024/02/15 09:21:40;;;;;;;1.87;1.47;;;11.70;97.30;;;;;;5038730;28;20196;-69
2024/02/15 09:24:06;;;;;;;1.43;0.87;;;11.80;97.30;;;;;;5030948;28;20998;-69
2024/02/15 09:26:31;;;;;;;1.40;1.30;;;11.80;97.30;;;;;;5046902;28;20175;-70
2024/02/15 09:28:57;;;;;;;2.20;1.37;;;11.90;97.30;;;;;;5053609;28;21015;-70
2024/02/15 09:31:24;;;;;;;3.10;1.40;;;12.00;97.30;;;;;;5041564;28;20202;-70
2024/02/15 09:33:50;;;;;;;1.17;1.07;;;12.10;97.30;;;;;;5050700;28;20662;-69
2024/02/15 09:36:16;;;;;;;1.10;1.00;;;12.20;97.30;;;;;;5042260;28;20437;-70
2024/02/15 09:38:41;;;;;;;1.93;1.00;;;12.30;97.30;;;;;;5039606;28;20944;-70
2024/02/15 09:41:07;;;;;;;2.60;1.50;;;12.40;97.30;;;;;;5044977;28;20441;-70
2024/02/15 09:43:34;;;;;;;2.50;1.03;;;12.40;97.30;;;;;;5033716;28;20275;-70
2024/02/15 09:46:04;;;;;;;1.30;1.13;;;12.40;97.30;;;;;;5045595;28;20230;-70
2024/02/15 09:48:32;;;;;;;1.03;0.93;;;12.40;97.30;;;;;;5048141;28;20466;-70
2024/02/15 09:50:58;;;;;;;2.07;1.03;;;12.50;97.30;;;;;;5061630;28;20555;-70
2024/02/15 09:53:27;;;;;;;1.20;1.10;;;12.40;97.30;;;;;;5050173;28;20421;-69
2024/02/15 09:55:54;;;;;;;0.90;0.80;;;12.40;97.30;;;;;;5056270;28;20421;-70
2024/02/15 09:58:22;;;;;;;1.07;0.97;;;12.30;97.30;;;;;;5040889;28;20424;-70
2024/02/15 10:00:49;;;;;;;0.90;0.80;;;12.30;97.30;;;;;;5063429;28;20465;-70
2024/02/15 10:03:18;;;;;;;1.17;1.03;;;12.40;97.30;;;;;;5072453;28;20860;-70
2024/02/15 10:05:44;;;;;;;1.13;1.03;;;12.40;97.30;;;;;;5072028;28;20452;-70
2024/02/15 10:08:11;;;;;;;1.00;0.90;;;12.50;97.30;;;;;;5071633;28;20506;-70
2024/02/15 10:10:36;;;;;;;0.80;0.80;;;12.50;97.30;;;;;;5072014;28;20191;-70
2024/02/15 10:13:02;;;;;;;2.30;1.00;;;12.50;97.30;;;;;;5053872;28;20425;-70
2024/02/15 10:15:36;;;;;;;1.10;1.00;;;12.50;97.30;;;;;;5071840;28;20545;-69
2024/02/15 10:18:03;;;;;;;1.97;1.10;;;12.60;97.30;;;;;;5080656;28;20278;-70
2024/02/15 10:20:29;;;;;;;1.17;1.07;;;12.60;97.30;;;;;;5070136;28;20528;-71
2024/02/15 10:22:58;;;;;;;1.77;1.57;;;12.70;97.30;;;;;;5062183;28;20551;-70
2024/02/15 10:25:27;;;;;;;1.60;1.37;;;12.70;97.30;;;;;;5072054;28;20179;-70
2024/02/15 10:28:07;;;;;;;1.33;1.23;;;12.80;97.30;;;;;;5063688;28;20537;-70
2024/02/15 10:30:37;;;;;;;1.43;1.37;;;12.80;97.30;;;;;;5053870;28;20453;-70
2024/02/15 10:33:03;;;;;;;1.60;1.43;;;12.90;97.30;;;;;;5071821;28;20441;-70
2024/02/15 10:35:29;;;;;;;1.03;0.93;;;12.90;97.30;;;;;;5059264;28;20428;-70
2024/02/15 10:38:07;;;;;;;1.37;1.27;;;13.00;97.30;;;;;;5071910;28;20416;-68
2024/02/15 10:40:33;;;;;;;2.40;2.13;;;13.00;97.30;;;;;;5056293;28;20203;-69
2024/02/15 10:43:02;;;;;;;1.00;0.90;;;13.00;97.30;;;;;;5071950;28;20785;-70
2024/02/15 10:45:30;;;;;;;1.20;1.10;;;13.10;97.30;;;;;;5071524;28;20421;-70
2024/02/15 10:47:57;;;;;;;1.27;1.20;;;13.10;97.30;;;;;;5071546;28;20456;-71
2024/02/15 10:50:23;;;;;;;1.73;1.63;;;13.20;97.30;;;;;;5057557;28;20847;-70
2024/02/15 10:52:58;;;;;;;0.90;0.80;;;13.20;97.30;;;;;;5071783;28;20419;-70
2024/02/15 10:55:35;;;;;;;0.93;0.83;;;13.20;97.30;;;;;;5071783;28;20924;-70
2024/02/15 10:58:05;;;;;;;1.97;1.10;;;13.20;97.30;;;;;;5046270;28;20470;-70
2024/02/15 11:00:33;;;;;;;0.80;0.80;;;13.30;97.30;;;;;;5061688;28;20530;-70
2024/02/15 11:03:06;;;;;;;1.70;1.60;;;13.30;97.30;;;;;;5071361;28;20445;-70
2024/02/15 11:05:34;;;;;;;0.90;0.80;;;13.40;97.30;;;;;;5071764;28;20520;-70
2024/02/15 11:08:01;;;;;;;6.03;2.80;;;13.50;97.30;;;;;;5053950;28;20658;-69
2024/02/15 11:10:28;;;;;;;1.10;1.00;;;13.50;97.30;;;;;;5070362;28;20437;-70
2024/02/15 11:12:53;;;;;;;1.10;1.00;;;13.60;97.30;;;;;;5071319;28;20417;-70
2024/02/15 11:15:41;;;;;;;1.27;1.17;;;13.60;97.30;;;;;;5085248;22;20487;-88
2024/02/15 11:18:07;;;;;;;0.90;0.80;;;13.60;97.30;;;;;;5044715;28;20188;-87
2024/02/15 11:20:33;;;;;;;10.13;2.87;;;13.60;97.30;;;;;;5056301;28;20413;-86
2024/02/15 11:23:00;;;;;;;1.50;1.40;;;13.70;97.30;;;;;;5056177;28;20179;-86
2024/02/15 11:25:36;;;;;;;1.03;0.93;;;13.70;97.30;;;;;;5043279;28;20433;-88
2024/02/15 11:30:34;;;;;;;1.43;1.20;;;13.80;97.30;;;;;;5046053;28;20516;-72
2024/02/15 11:33:22;;;;;;;1.00;0.90;;;13.90;97.30;;;;;;5032063;28;20498;-69
2024/02/15 11:36:05;;;;;;;1.33;1.00;;;13.90;97.30;;;;;;5042306;28;20523;-71
2024/02/15 11:38:30;;;;;;;1.30;1.20;;;14.00;97.30;;;;;;5034730;28;20431;-68
2024/02/15 11:40:56;;;;;;;1.30;1.20;;;14.10;97.30;;;;;;5022009;28;20446;-69
2024/02/15 11:43:43;;;;;;;1.10;1.07;;;14.20;97.30;;;;;;5045229;28;20198;-70
2024/02/15 11:46:13;;;;;;;1.00;0.90;;;14.30;97.30;;;;;;5045458;28;20183;-70
2024/02/15 11:48:42;;;;;;;2.07;1.93;;;14.30;97.30;;;;;;5043132;28;20468;-69
2024/02/15 11:51:11;;;;;;;1.40;1.30;;;14.50;97.30;;;;;;5047557;28;20470;-68
2024/02/15 11:53:37;;;;;;;1.10;1.00;;;14.60;97.30;;;;;;5048953;28;20423;-69
2024/02/15 11:56:04;;;;;;;1.03;0.93;;;14.80;97.30;;;;;;5044545;28;20776;-71
2024/02/15 11:58:41;;;;;;;1.00;0.90;;;15.00;97.30;;;;;;5049844;28;20413;-68
2024/02/15 12:20:28;;;;;;;1.30;1.20;;;15.80;97.30;;;;;;5040829;28;20924;-70
2024/02/15 12:22:54;;;;;;;1.30;1.20;;;15.60;97.30;;;;;;5043004;28;20422;-69
2024/02/15 12:25:24;;;;;;;1.20;1.10;;;15.50;97.30;;;;;;5042873;28;20425;-70
2024/02/15 12:27:56;;;;;;;2.67;1.50;;;15.50;97.30;;;;;;5049313;28;21082;-70
2024/02/15 12:30:22;;;;;;;3.40;2.20;;;15.40;97.30;;;;;;5040165;28;20485;-71
2024/02/15 12:32:50;;;;;;;1.10;1.00;;;15.30;97.30;;;;;;5048880;28;20410;-69
2024/02/15 12:35:25;;;;;;;4.57;1.47;;;15.20;97.30;;;;;;5035878;28;20484;-69
2024/02/15 12:37:59;;;;;;;1.00;0.90;;;15.40;97.30;;;;;;5035039;28;20498;-69
2024/02/15 12:40:31;;;;;;;8.73;1.63;;;15.50;97.30;;;;;;5035749;28;20999;-71
2024/02/15 12:42:56;;;;;;;1.47;0.97;;;15.50;97.30;;;;;;5042484;28;20430;-70
2024/02/15 12:45:27;;;;;;;1.00;0.90;;;15.30;97.30;;;;;;5033909;28;20949;-70
2024/02/15 12:47:54;;;;;;;0.90;0.80;;;15.20;97.30;;;;;;5033228;28;20290;-69
2024/02/15 12:50:38;;;;;;;2.80;2.60;;;15.00;97.30;;;;;;5039640;28;20625;-69
2024/02/15 12:53:03;;;;;;;1.30;1.20;;;15.00;97.30;;;;;;5048953;28;20414;-67
2024/02/15 12:55:37;;;;;;;1.43;1.33;;;14.90;97.30;;;;;;5036836;28;20975;-69
2024/02/15 12:58:08;;;;;;;1.47;1.00;;;15.00;97.30;;;;;;5046910;28;20191;-70
2024/02/15 13:00:35;;;;;;;1.77;1.23;;;15.00;97.30;;;;;;5046197;28;20819;-69
2024/02/15 13:03:03;;;;;;;2.03;1.13;;;15.10;97.30;;;;;;5050349;28;20502;-70
2024/02/15 13:05:30;;;;;;;0.90;0.80;;;15.10;97.30;;;;;;5037399;28;20510;-69
2024/02/15 13:08:01;;;;;;;3.13;1.10;;;15.10;97.30;;;;;;5039695;28;20446;-70
2024/02/15 13:10:28;;;;;;;3.33;1.87;;;14.90;97.30;;;;;;5046011;28;20434;-70
2024/02/15 13:12:55;;;;;;;1.20;1.10;;;14.80;97.30;;;;;;5041307;28;20918;-70
2024/02/15 13:15:26;;;;;;;0.93;0.83;;;14.60;97.30;;;;;;5046831;28;20422;-70
2024/02/15 13:17:55;;;;;;;1.00;0.90;;;14.60;97.30;;;;;;5042884;28;20446;-70
2024/02/15 13:20:43;;;;;;;1.30;1.20;;;14.50;97.30;;;;;;5040955;28;20716;-70
2024/02/15 13:23:14;;;;;;;2.60;1.70;;;14.50;97.30;;;;;;5039011;28;20973;-67
2024/02/15 13:25:42;;;;;;;1.10;1.00;;;14.50;97.30;;;;;;5041512;28;20422;-70
2024/02/15 13:28:10;;;;;;;1.80;1.20;;;14.50;97.30;;;;;;5037747;28;20462;-70
2024/02/15 13:30:36;;;;;;;1.20;0.90;;;14.60;97.30;;;;;;5041516;28;20454;-70
2024/02/15 13:33:02;;;;;;;0.90;0.90;;;14.60;97.30;;;;;;5038622;28;20864;-70
2024/02/15 13:35:28;;;;;;;0.90;0.80;;;14.70;97.30;;;;;;5024193;28;20418;-70
2024/02/15 13:37:54;;;;;;;2.43;2.23;;;14.70;97.30;;;;;;5041516;28;20271;-69
2024/02/15 13:40:24;;;;;;;0.97;0.87;;;14.80;97.30;;;;;;5029004;28;20414;-68
2024/02/15 13:42:55;;;;;;;1.20;1.13;;;14.80;97.30;;;;;;5029281;28;20505;-70
2024/02/15 13:45:24;;;;;;;1.13;1.00;;;14.80;97.30;;;;;;5046829;28;20486;-69
2024/02/15 13:47:50;;;;;;;0.90;0.80;;;14.80;97.30;;;;;;5027310;28;21037;-70
2024/02/15 13:50:17;;;;;;;0.87;0.77;;;14.80;97.30;;;;;;5042835;28;20414;-70
2024/02/15 13:52:44;;;;;;;0.80;0.80;;;14.80;97.30;;;;;;5047220;28;20521;-70
2024/02/15 13:55:14;;;;;;;1.23;1.13;;;14.90;97.30;;;;;;5047004;28;20419;-70
2024/02/15 13:57:41;;;;;;;1.20;1.10;;;15.10;97.30;;;;;;5046805;28;20422;-70
2024/02/15 14:00:14;;;;;;;1.20;1.10;;;15.20;97.30;;;;;;5027411;28;20556;-70
2024/02/15 14:02:43;;;;;;;2.33;1.23;;;15.40;97.30;;;;;;5045753;28;20929;-70
2024/02/15 14:05:11;;;;;;;1.37;1.27;;;15.80;97.30;;;;;;5023623;28;20896;-69
2024/02/15 14:07:37;;;;;;;1.33;1.23;;;16.10;97.30;;;;;;5038444;28;20453;-71
2024/02/15 14:10:04;;;;;;;1.10;1.00;;;16.30;97.30;;;;;;5028033;28;20426;-70
2024/02/15 14:12:30;;;;;;;1.47;1.43;;;16.40;97.30;;;;;;5052973;28;20206;-69
2024/02/15 14:14:56;;;;;;;0.90;0.80;;;16.80;97.30;;;;;;5025268;28;20427;-70
2024/02/15 14:17:22;;;;;;;1.00;0.90;;;17.40;97.30;;;;;;5027970;28;20203;-69
2024/02/15 14:19:48;;;;;;;1.50;1.43;;;17.50;97.30;;;;;;5044200;28;20414;-69
2024/02/15 14:22:16;;;;;;;1.23;0.80;;;17.40;97.30;;;;;;5028256;28;20817;-69
2024/02/15 14:24:43;;;;;;;1.27;1.00;;;17.60;97.30;;;;;;5044771;28;20464;-69
2024/02/15 14:27:09;;;;;;;1.63;1.00;;;17.50;97.30;;;;;;5046678;28;20414;-68
2024/02/15 14:29:37;;;;;;;1.60;1.50;;;17.20;97.30;;;;;;5046068;28;20829;-69
2024/02/15 14:34:51;;;;;;;0.90;0.80;;;17.30;97.30;;;;;;5044019;28;20413;-67
2024/02/15 14:37:17;;;;;;;1.17;0.90;;;17.00;97.30;;;;;;5045325;28;20501;-71
2024/02/15 14:39:42;;;;;;;1.60;1.50;;;16.80;97.30;;;;;;5046649;28;20489;-70
2024/02/15 14:42:08;;;;;;;1.60;1.50;;;16.90;97.30;;;;;;5038378;28;20674;-69
2024/02/15 14:44:34;;;;;;;0.70;0.70;;;16.70;97.30;;;;;;5043918;28;20182;-70
2024/02/15 14:46:59;;;;;;;1.27;1.27;;;16.40;97.30;;;;;;5028532;28;20198;-69
2024/02/15 14:49:25;;;;;;;3.43;1.37;;;16.20;97.30;;;;;;5010985;28;20707;-68
2024/02/15 14:51:51;;;;;;;1.00;0.90;;;16.00;97.30;;;;;;5027682;28;20207;-69
2024/02/15 14:54:18;;;;;;;1.37;1.10;;;15.80;97.30;;;;;;5048028;28;20184;-69
2024/02/15 14:56:44;;;;;;;1.40;1.10;;;15.70;97.30;;;;;;5027590;28;20430;-69
2024/02/15 14:59:10;;;;;;;1.30;1.20;;;15.60;97.30;;;;;;5039196;28;20770;-70
2024/02/15 15:01:37;;;;;;;1.63;1.10;;;15.50;97.30;;;;;;5041115;28;20687;-69
2024/02/15 15:04:05;;;;;;;1.03;0.97;;;15.40;97.30;;;;;;5031105;28;20643;-69
2024/02/15 15:14:44;;;;;;;1.10;1.00;;;15.10;97.30;;;;;;5041429;28;20422;-70
2024/02/15 15:17:12;;;;;;;2.43;2.23;;;15.10;97.30;;;;;;5020986;28;21012;-69
2024/02/15 15:19:38;;;;;;;1.00;0.90;;;15.00;97.30;;;;;;5039476;28;20478;-70
2024/02/15 15:22:04;;;;;;;1.20;1.10;;;15.00;97.30;;;;;;5024182;28;20442;-70
2024/02/15 15:24:32;;;;;;;1.27;1.03;;;14.90;97.30;;;;;;5032642;28;20505;-70
2024/02/15 15:26:59;;;;;;;1.27;1.17;;;14.90;97.30;;;;;;5021108;28;20425;-69
2024/02/15 15:29:25;;;;;;;0.90;0.80;;;14.90;97.30;;;;;;5033466;28;20505;-69
2024/02/15 15:31:51;;;;;;;2.70;1.30;;;14.80;97.30;;;;;;5038889;28;20808;-69
2024/02/15 15:34:19;;;;;;;1.00;0.90;;;14.80;97.30;;;;;;5030633;28;20419;-69
2024/02/15 15:36:46;;;;;;;1.10;1.00;;;14.80;97.30;;;;;;5046056;28;20446;-69
2024/02/15 15:39:12;;;;;;;1.40;1.30;;;14.80;97.30;;;;;;5038185;28;20752;-70
2024/02/15 15:41:38;;;;;;;1.13;1.03;;;14.70;97.30;;;;;;5036431;28;20451;-69
2024/02/15 15:44:04;;;;;;;1.20;1.10;;;14.70;97.30;;;;;;5057385;28;20190;-70
2024/02/15 15:46:30;;;;;;;1.73;1.63;;;14.70;97.30;;;;;;5053168;28;20284;-69
2024/02/15 15:48:55;;;;;;;1.00;0.90;;;14.70;97.30;;;;;;5050621;28;20454;-69
2024/02/15 15:51:21;;;;;;;1.00;1.00;;;14.60;97.30;;;;;;5048701;28;21008;-69
2024/02/15 15:53:49;;;;;;;1.00;0.90;;;14.60;97.30;;;;;;5030134;28;20206;-69
2024/02/15 15:56:16;;;;;;;1.10;1.03;;;14.50;97.30;;;;;;5036142;28;20185;-69
2024/02/15 15:58:44;;;;;;;0.97;0.87;;;14.50;97.30;;;;;;5045524;28;20417;-69
2024/02/15 16:01:10;;;;;;;1.23;1.13;;;14.50;97.30;;;;;;5039706;28;20958;-70
2024/02/15 16:03:36;;;;;;;1.10;1.00;;;14.40;97.30;;;;;;5049576;28;20419;-69
2024/02/15 16:06:02;;;;;;;1.00;0.90;;;14.40;97.30;;;;;;5046028;28;20854;-70
2024/02/15 16:08:28;;;;;;;1.17;1.10;;;14.40;97.30;;;;;;5028123;28;20208;-69
2024/02/15 16:10:55;;;;;;;1.00;1.00;;;14.40;97.30;;;;;;5037201;28;21437;-69
2024/02/15 16:13:22;;;;;;;0.90;0.80;;;14.40;97.30;;;;;;5041358;28;20423;-70
2024/02/15 16:15:53;;;;;;;0.87;0.80;;;14.30;97.30;;;;;;5044493;28;20418;-69
2024/02/15 16:18:19;;;;;;;1.10;1.00;;;14.30;97.30;;;;;;5042238;28;20480;-70
2024/02/15 16:20:45;;;;;;;3.70;1.00;;;14.30;97.30;;;;;;5045044;28;20521;-69
2024/02/15 16:23:11;;;;;;;1.17;1.00;;;14.20;97.30;;;;;;5041167;28;20606;-69
2024/02/15 16:25:36;;;;;;;2.33;1.47;;;14.20;97.30;;;;;;5047867;28;20544;-69
2024/02/15 16:28:05;;;;;;;1.77;1.67;;;14.20;97.30;;;;;;5045959;28;20282;-69
2024/02/15 16:30:32;;;;;;;0.90;0.80;;;14.10;97.30;;;;;;5045680;28;20208;-70
2024/02/15 16:32:58;;;;;;;1.67;1.33;;;14.10;97.30;;;;;;5043823;28;20426;-70
2024/02/15 16:35:24;;;;;;;2.40;2.20;;;14.10;97.30;;;;;;5043197;28;20431;-69
2024/02/15 16:37:49;;;;;;;1.03;1.00;;;14.00;97.30;;;;;;5045047;28;20180;-69
2024/02/15 16:40:16;;;;;;;1.00;0.90;;;14.00;97.30;;;;;;5041212;28;20445;-70
2024/02/15 16:42:44;;;;;;;1.10;1.00;;;14.00;97.30;;;;;;5044745;28;20207;-70
2024/02/15 16:45:13;;;;;;;2.00;1.83;;;14.00;97.30;;;;;;5046703;28;20472;-69
2024/02/15 16:47:40;;;;;;;1.30;1.20;;;13.90;97.30;;;;;;5048574;28;20470;-70
2024/02/15 16:50:09;;;;;;;1.77;0.90;;;13.90;97.30;;;;;;5042086;28;20449;-70
2024/02/15 16:52:36;;;;;;;0.90;0.80;;;13.80;97.30;;;;;;5041012;28;20453;-70
2024/02/15 16:55:06;;;;;;;0.70;0.70;;;13.80;97.30;;;;;;5051265;28;21056;-70
2024/02/15 16:57:40;;;;;;;3.00;2.27;;;13.80;97.30;;;;;;5043860;28;20423;-70
2024/02/15 17:00:07;;;;;;;1.00;0.90;;;13.70;97.30;;;;;;5041945;28;20517;-70
2024/02/15 17:02:33;;;;;;;1.00;0.90;;;13.60;97.30;;;;;;5043309;28;20525;-70
2024/02/15 17:05:00;;;;;;;1.27;1.17;;;13.50;97.30;;;;;;5039170;28;20429;-70
2024/02/15 17:07:25;;;;;;;2.40;1.10;;;13.50;97.30;;;;;;5046265;28;20494;-69
2024/02/15 17:09:52;;;;;;;1.37;1.27;;;13.40;97.30;;;;;;5048172;28;20762;-70
2024/02/15 17:12:18;;;;;;;2.97;1.30;;;13.30;97.30;;;;;;5038134;28;20188;-70
2024/02/15 17:14:44;;;;;;;1.30;1.20;;;13.20;97.30;;;;;;5044419;28;20406;-70
2024/02/15 17:17:09;;;;;;;1.63;1.17;;;13.10;97.30;;;;;;5041620;28;20421;-70
2024/02/15 17:19:36;;;;;;;0.93;0.93;;;13.00;97.30;;;;;;5041555;28;20433;-69
2024/02/15 17:22:03;;;;;;;1.10;1.10;;;13.00;97.30;;;;;;5039092;28;20215;-69
2024/02/15 17:24:31;;;;;;;5.23;1.70;;;12.90;97.30;;;;;;5044421;28;20798;-70
2024/02/15 17:26:56;;;;;;;2.50;1.60;;;12.80;97.30;;;;;;5047842;28;20867;-70
2024/02/15 17:29:22;;;;;;;4.20;1.90;;;12.80;97.30;;;;;;5044364;28;20569;-69
2024/02/15 17:31:52;;;;;;;2.93;1.47;;;12.80;97.30;;;;;;5026953;28;20196;-70
2024/02/15 17:34:17;;;;;;;1.10;1.10;;;12.80;97.30;;;;;;5033095;28;20547;-70
2024/02/15 17:36:44;;;;;;;1.90;1.80;;;12.70;97.30;;;;;;5043340;28;20919;-70
2024/02/15 17:39:10;;;;;;;2.93;1.63;;;12.70;97.30;;;;;;5040171;28;20244;-70
2024/02/15 17:41:38;;;;;;;6.60;3.30;;;12.70;97.30;;;;;;5040758;28;20508;-70
2024/02/15 17:44:04;;;;;;;1.27;1.17;;;12.70;97.30;;;;;;5026728;28;20423;-70
2024/02/15 17:46:30;;;;;;;0.93;0.83;;;12.60;97.30;;;;;;5043597;28;20429;-70
2024/02/15 17:49:00;;;;;;;1.60;1.50;;;12.50;97.30;;;;;;5024934;28;20470;-69
2024/02/15 17:51:27;;;;;;;3.30;1.90;;;12.40;97.30;;;;;;5036491;28;20549;-69
2024/02/15 17:53:57;;;;;;;1.20;1.10;;;12.30;97.30;;;;;;5018095;28;20427;-70
2024/02/15 17:56:24;;;;;;;3.03;2.10;;;12.20;97.30;;;;;;5041488;28;20431;-70
2024/02/15 17:58:49;;;;;;;5.03;3.17;;;12.10;97.30;;;;;;5039282;28;20414;-70
2024/02/15 18:01:15;;;;;;;1.40;1.30;;;12.10;97.30;;;;;;5042003;28;20515;-70
2024/02/15 18:03:41;;;;;;;1.53;1.43;;;12.10;97.30;;;;;;5020270;28;20184;-70
2024/02/15 18:06:08;;;;;;;1.17;1.07;;;12.10;97.30;;;;;;5037748;28;20703;-70
2024/02/15 18:08:34;;;;;;;4.47;3.67;;;12.10;97.30;;;;;;5034650;28;20972;-70
2024/02/15 18:11:01;;;;;;;6.63;2.10;;;12.10;97.30;;;;;;5047239;28;20437;-70
2024/02/15 18:13:28;;;;;;;1.67;1.57;;;12.10;97.30;;;;;;5036712;28;20418;-69
2024/02/15 18:15:54;;;;;;;1.90;1.87;;;12.10;97.30;;;;;;5027986;28;20422;-70
2024/02/15 18:18:20;;;;;;;5.80;2.43;;;12.10;97.30;;;;;;5037454;28;20429;-70
2024/02/15 18:20:45;;;;;;;2.03;1.93;;;12.10;97.30;;;;;;5037528;28;20445;-69
2024/02/15 18:23:11;;;;;;;1.30;1.20;;;12.20;97.30;;;;;;5047048;28;20493;-70
2024/02/15 18:25:36;;;;;;;7.90;2.13;;;12.10;97.30;;;;;;5024363;28;20271;-69
2024/02/15 18:28:03;;;;;;;8.30;2.33;;;12.10;97.30;;;;;;5044676;28;20243;-70
2024/02/15 18:30:33;;;;;;;3.67;1.90;;;12.10;97.30;;;;;;5019112;28;20259;-70
2024/02/15 18:33:03;;;;;;;1.10;1.00;;;12.10;97.30;;;;;;5051158;28;20414;-70
2024/02/15 18:35:28;;;;;;;1.70;1.60;;;12.10;97.30;;;;;;5024575;28;20427;-69
2024/02/15 18:37:54;;;;;;;2.80;1.70;;;12.10;97.30;;;;;;5030779;28;20426;-70
2024/02/15 18:40:19;;;;;;;2.20;2.00;;;12.10;97.30;;;;;;5021871;28;20191;-69
2024/02/15 18:42:48;;;;;;;4.20;2.13;;;12.00;97.30;;;;;;5039570;28;20270;-70
2024/02/15 18:45:13;;;;;;;1.57;1.50;;;12.00;97.30;;;;;;5043527;28;20544;-69
2024/02/15 18:47:39;;;;;;;2.10;1.67;;;11.90;97.30;;;;;;5021043;28;20450;-69
2024/02/15 18:50:05;;;;;;;1.53;1.43;;;11.90;97.30;;;;;;5042976;28;20208;-69
2024/02/15 18:52:31;;;;;;;4.20;2.07;;;11.90;97.30;;;;;;5025291;28;20279;-70
2024/02/15 18:54:57;;;;;;;2.07;1.93;;;11.80;97.30;;;;;;5041949;28;20868;-70
2024/02/15 18:57:23;;;;;;;1.10;1.00;;;11.80;97.30;;;;;;5039440;28;20195;-69
2024/02/15 18:59:49;;;;;;;4.10;2.00;;;11.80;97.30;;;;;;5029655;28;20430;-70
2024/02/15 19:02:18;;;;;;;2.97;1.67;;;11.70;97.30;;;;;;5049467;28;20429;-70
2024/02/15 19:04:44;;;;;;;2.17;1.63;;;11.70;97.30;;;;;;5041705;28;20184;-69
2024/02/15 19:09:39;;;;;;;4.83;2.33;;;11.70;97.30;;;;;;5030779;28;20239;-69
2024/02/15 19:12:10;;;;;;;4.10;1.47;;;11.60;97.30;;;;;;5014908;28;20831;-69
2024/02/15 19:14:35;;;;;;;1.73;1.50;;;11.60;97.30;;;;;;5010234;28;20333;-69
2024/02/15 19:17:01;;;;;;;1.13;1.03;;;11.60;97.30;;;;;;5018505;28;20529;-71
2024/02/15 19:19:27;;;;;;;2.00;1.90;;;11.60;97.30;;;;;;5042540;28;20180;-71
2024/02/15 19:21:53;;;;;;;3.60;2.87;;;11.50;97.30;;;;;;5023735;28;20283;-71
2024/02/15 19:24:19;;;;;;;1.37;1.27;;;11.50;97.30;;;;;;5039878;28;20182;-70
2024/02/15 19:26:45;;;;;;;1.90;1.77;;;11.50;97.30;;;;;;5021080;28;20427;-70
2024/02/15 19:29:11;;;;;;;3.17;3.00;;;11.40;97.30;;;;;;5011594;28;20845;-70
2024/02/15 19:31:37;;;;;;;5.27;3.13;;;11.40;97.30;;;;;;5018060;28;20950;-70
2024/02/15 19:34:04;;;;;;;6.97;3.10;;;11.40;97.30;;;;;;5035945;28;20425;-70
2024/02/15 19:36:30;;;;;;;2.90;1.80;;;11.40;97.30;;;;;;5027125;28;20438;-70
2024/02/15 19:38:56;;;;;;;2.70;2.53;;;11.40;97.30;;;;;;5017909;28;20811;-70
2024/02/15 19:41:22;;;;;;;1.10;1.03;;;11.40;97.30;;;;;;5035973;28;20445;-70
2024/02/15 19:43:51;;;;;;;4.00;2.13;;;11.40;97.30;;;;;;5012760;28;20671;-70
2024/02/15 19:46:20;;;;;;;2.07;1.90;;;11.30;97.30;;;;;;5043659;28;20191;-71
2024/02/15 19:48:49;;;;;;;3.97;2.37;;;11.30;97.30;;;;;;5017998;28;20474;-71